Time;durP1;ratioP1;P1;durP2;ratioP2;P2;SDS_P1;SDS_P2;PMS_P1;PMS_P2;Temp;Humidity;BMP_temperature;BMP_pressure;BME280_temperature;BME280_humidity;BME280_pressure;Samples;Min_cycle;Max_cycle;Signal;HPM_P1;HPM_P2
2022/08/16 00:01:10;;;;;;;5.53;4.57;;;19.00;99.90;;;;;;5063096;28;20202;-67
2022/08/16 00:03:38;;;;;;;8.80;4.50;;;19.00;99.90;;;;;;5067189;28;20198;-68
2022/08/16 00:06:06;;;;;;;7.63;4.33;;;18.90;99.90;;;;;;5063748;28;20233;-67
2022/08/16 00:08:36;;;;;;;5.47;4.03;;;19.00;99.90;;;;;;5050259;28;20203;-67
2022/08/16 00:11:08;;;;;;;5.10;4.13;;;19.00;99.90;;;;;;5067154;28;20194;-67
2022/08/16 00:13:42;;;;;;;7.53;4.40;;;18.90;99.90;;;;;;5066652;28;20202;-67
2022/08/16 00:16:22;;;;;;;7.33;4.70;;;18.90;99.90;;;;;;5063686;28;20313;-68
2022/08/16 00:19:08;;;;;;;6.40;4.10;;;19.10;99.90;;;;;;5063652;28;20237;-68
2022/08/16 00:21:40;;;;;;;5.73;4.77;;;19.00;99.90;;;;;;5066366;28;20281;-68
2022/08/16 00:24:07;;;;;;;5.70;4.43;;;19.00;99.90;;;;;;5065893;28;20198;-68
2022/08/16 00:26:38;;;;;;;7.23;4.73;;;19.10;99.90;;;;;;5066520;28;20227;-68
2022/08/16 00:29:15;;;;;;;7.53;4.67;;;19.10;99.90;;;;;;5066804;28;20681;-68
2022/08/16 00:31:44;;;;;;;6.97;4.77;;;18.90;99.90;;;;;;5065844;28;20244;-68
2022/08/16 00:34:26;;;;;;;5.70;4.87;;;18.80;99.90;;;;;;5056845;28;20203;-67
2022/08/16 00:37:13;;;;;;;6.03;4.33;;;18.70;99.90;;;;;;5066606;28;20202;-68
2022/08/16 00:39:45;;;;;;;6.80;4.17;;;18.60;99.90;;;;;;5065534;28;20257;-66
2022/08/16 00:42:13;;;;;;;6.83;4.80;;;18.50;99.90;;;;;;5063211;28;20233;-67
2022/08/16 00:45:01;;;;;;;7.43;5.37;;;18.40;99.90;;;;;;5059783;28;20275;-67
2022/08/16 00:47:35;;;;;;;6.47;4.70;;;18.40;99.90;;;;;;5064426;28;20282;-66
2022/08/16 00:50:05;;;;;;;7.37;4.77;;;18.50;99.90;;;;;;5062762;28;20225;-68
2022/08/16 00:52:39;;;;;;;8.03;4.57;;;18.40;99.90;;;;;;5066286;28;20199;-67
2022/08/16 00:55:16;;;;;;;8.63;5.23;;;18.50;99.90;;;;;;5065698;28;20214;-68
2022/08/16 00:57:44;;;;;;;7.53;4.57;;;18.60;99.90;;;;;;5065158;28;20194;-67
2022/08/16 01:00:29;;;;;;;7.97;4.77;;;18.50;99.90;;;;;;5064314;28;20347;-67
2022/08/16 01:02:59;;;;;;;7.67;4.60;;;18.50;99.90;;;;;;5063256;28;20290;-67
2022/08/16 01:05:28;;;;;;;5.90;4.80;;;18.40;99.90;;;;;;5064099;28;20229;-67
2022/08/16 01:07:56;;;;;;;6.47;5.33;;;18.40;99.90;;;;;;5051960;28;20215;-67
2022/08/16 01:10:27;;;;;;;10.10;6.07;;;18.30;99.90;;;;;;5052450;28;20675;-68
2022/08/16 01:13:01;;;;;;;9.20;5.63;;;18.30;99.90;;;;;;5072172;28;20226;-68
2022/08/16 01:15:36;;;;;;;10.03;5.60;;;18.30;99.90;;;;;;5052291;28;20280;-67
2022/08/16 01:18:06;;;;;;;7.60;5.07;;;18.40;99.90;;;;;;5051798;28;20257;-68
2022/08/16 01:20:39;;;;;;;8.43;5.27;;;18.50;99.90;;;;;;5051948;28;20230;-67
2022/08/16 01:23:25;;;;;;;7.07;5.33;;;18.40;99.90;;;;;;5051845;28;20209;-67
2022/08/16 01:26:12;;;;;;;7.10;5.30;;;18.30;99.90;;;;;;5054637;28;20300;-67
2022/08/16 01:29:03;;;;;;;8.80;5.47;;;18.30;99.90;;;;;;5051907;28;20199;-67
2022/08/16 01:31:29;;;;;;;6.30;5.10;;;18.30;99.90;;;;;;5051529;28;20237;-68
2022/08/16 01:33:56;;;;;;;7.20;5.10;;;18.30;99.90;;;;;;5051602;28;20198;-67
2022/08/16 01:36:23;;;;;;;8.33;5.40;;;18.30;99.90;;;;;;5051095;28;20240;-67
2022/08/16 01:38:52;;;;;;;7.63;5.47;;;18.40;99.90;;;;;;5034028;28;20223;-66
2022/08/16 01:41:28;;;;;;;6.90;5.47;;;18.40;99.90;;;;;;5051406;28;20199;-68
2022/08/16 01:43:56;;;;;;;6.83;5.10;;;18.30;99.90;;;;;;5051456;28;21114;-67
2022/08/16 01:46:34;;;;;;;5.97;4.77;;;18.20;99.90;;;;;;5033905;28;20221;-67
2022/08/16 01:49:08;;;;;;;8.90;4.97;;;18.00;99.90;;;;;;5051268;28;20201;-67
2022/08/16 01:51:36;;;;;;;6.73;5.13;;;18.10;99.90;;;;;;5051056;28;20198;-67
2022/08/16 01:54:05;;;;;;;5.83;4.90;;;18.00;99.90;;;;;;5051291;28;20199;-67
2022/08/16 01:56:32;;;;;;;7.40;4.80;;;18.20;99.90;;;;;;5051917;28;20214;-68
2022/08/16 01:59:03;;;;;;;7.87;5.30;;;18.10;99.90;;;;;;5033686;28;20194;-68
2022/08/16 02:01:30;;;;;;;9.30;5.40;;;17.90;99.90;;;;;;5050997;28;20209;-68
2022/08/16 02:03:58;;;;;;;5.60;4.70;;;18.00;99.90;;;;;;5051203;28;20574;-67
2022/08/16 02:06:39;;;;;;;6.13;4.87;;;18.10;99.90;;;;;;5050445;28;20643;-67
2022/08/16 02:09:13;;;;;;;7.47;4.80;;;18.00;99.90;;;;;;5034222;28;20228;-67
2022/08/16 02:11:45;;;;;;;7.27;5.10;;;18.00;99.90;;;;;;5050757;28;20199;-68
2022/08/16 02:14:22;;;;;;;7.23;4.73;;;18.00;99.90;;;;;;5034010;28;20226;-67
2022/08/16 02:16:52;;;;;;;8.50;5.90;;;17.80;99.90;;;;;;5050549;28;20227;-68
2022/08/16 02:19:19;;;;;;;6.80;5.03;;;17.80;99.90;;;;;;5050772;28;20252;-68
2022/08/16 02:21:53;;;;;;;10.10;6.30;;;17.70;99.90;;;;;;5070225;28;20582;-67
2022/08/16 02:24:40;;;;;;;9.33;5.53;;;18.00;99.90;;;;;;5070570;28;20198;-67
2022/08/16 02:27:12;;;;;;;7.07;5.10;;;17.80;99.90;;;;;;5070241;28;20221;-68
2022/08/16 02:29:40;;;;;;;7.07;5.53;;;17.70;99.90;;;;;;5058848;28;20199;-68
2022/08/16 02:32:10;;;;;;;9.60;5.50;;;17.60;99.90;;;;;;5050435;28;20556;-67
2022/08/16 02:34:57;;;;;;;10.47;5.47;;;17.50;99.90;;;;;;5050536;28;20334;-67
2022/08/16 02:37:23;;;;;;;6.23;5.17;;;17.40;99.90;;;;;;5050169;28;20252;-67
2022/08/16 02:40:12;;;;;;;7.93;5.57;;;17.40;99.90;;;;;;5050792;28;20199;-68
2022/08/16 02:42:47;;;;;;;9.97;6.13;;;17.30;99.90;;;;;;5050654;28;20214;-67
2022/08/16 02:45:17;;;;;;;7.07;5.47;;;17.60;99.90;;;;;;5049934;28;20302;-68
2022/08/16 02:47:44;;;;;;;8.83;5.90;;;17.60;99.90;;;;;;5049772;28;20219;-68
2022/08/16 02:50:31;;;;;;;7.63;5.43;;;17.80;99.90;;;;;;5035804;28;20252;-68
2022/08/16 02:53:18;;;;;;;9.73;5.37;;;17.70;99.90;;;;;;5050385;28;20198;-66
2022/08/16 02:55:50;;;;;;;7.40;5.33;;;17.50;99.90;;;;;;5038838;28;20670;-68
2022/08/16 02:58:18;;;;;;;10.90;5.67;;;17.40;99.90;;;;;;5050301;28;20202;-67
2022/08/16 03:00:54;;;;;;;11.37;6.43;;;17.40;99.90;;;;;;5050156;28;20191;-68
2022/08/16 03:03:23;;;;;;;12.17;6.40;;;17.60;99.90;;;;;;5050149;28;20198;-68
2022/08/16 03:05:50;;;;;;;8.13;5.97;;;17.60;99.90;;;;;;5049773;28;20463;-68
2022/08/16 03:08:20;;;;;;;8.00;5.60;;;17.60;99.90;;;;;;5050216;28;20322;-66
2022/08/16 03:11:07;;;;;;;7.77;5.57;;;17.50;99.90;;;;;;5050048;28;20199;-68
2022/08/16 03:13:49;;;;;;;7.90;5.57;;;17.30;99.90;;;;;;5049977;28;20202;-68
2022/08/16 03:16:18;;;;;;;7.20;5.00;;;17.20;99.90;;;;;;5049588;28;20225;-68
2022/08/16 03:19:05;;;;;;;6.63;5.90;;;17.10;99.90;;;;;;5050046;28;20207;-68
2022/08/16 03:21:34;;;;;;;10.43;5.93;;;17.10;99.90;;;;;;5049778;28;20194;-68
2022/08/16 03:24:08;;;;;;;7.77;5.57;;;17.20;99.90;;;;;;5049925;28;20203;-67
2022/08/16 03:26:57;;;;;;;9.13;5.90;;;17.10;99.90;;;;;;5034920;28;20280;-68
2022/08/16 03:29:26;;;;;;;10.23;6.37;;;17.00;99.90;;;;;;5049853;28;20199;-68
2022/08/16 03:31:57;;;;;;;8.63;5.93;;;16.90;99.90;;;;;;5049523;28;20589;-68
2022/08/16 03:34:28;;;;;;;9.67;6.30;;;17.00;99.90;;;;;;5049914;28;20198;-68
2022/08/16 03:36:56;;;;;;;6.93;5.33;;;17.30;99.90;;;;;;5049450;28;20217;-68
2022/08/16 03:39:23;;;;;;;6.10;5.40;;;17.40;99.90;;;;;;5049744;28;20194;-68
2022/08/16 03:41:51;;;;;;;7.40;5.60;;;17.40;99.90;;;;;;5050109;28;20191;-68
2022/08/16 03:44:26;;;;;;;11.03;5.53;;;17.40;99.90;;;;;;5049911;28;20278;-68
2022/08/16 03:47:13;;;;;;;8.77;5.33;;;17.40;99.90;;;;;;5049251;28;20733;-67
2022/08/16 03:49:46;;;;;;;7.10;5.70;;;17.20;99.90;;;;;;5049583;28;20202;-68
2022/08/16 03:52:21;;;;;;;8.43;5.73;;;17.10;99.90;;;;;;5049681;28;20264;-68
2022/08/16 03:54:51;;;;;;;9.03;6.30;;;16.90;99.90;;;;;;5049617;28;20282;-66
2022/08/16 03:57:23;;;;;;;7.40;5.87;;;17.00;99.90;;;;;;5049637;28;20225;-68
2022/08/16 03:59:58;;;;;;;7.50;5.27;;;17.10;99.90;;;;;;5053353;28;20373;-67
2022/08/16 04:02:27;;;;;;;8.63;5.73;;;17.20;99.90;;;;;;5053953;28;20195;-68
2022/08/16 04:04:57;;;;;;;9.53;5.47;;;17.30;99.90;;;;;;5056005;28;20281;-66
2022/08/16 04:07:24;;;;;;;10.23;6.30;;;17.20;99.90;;;;;;5057561;28;20211;-68
2022/08/16 04:09:51;;;;;;;7.97;5.50;;;17.20;99.90;;;;;;5053586;28;20226;-67
2022/08/16 04:12:18;;;;;;;7.87;5.73;;;17.20;99.90;;;;;;5053452;28;20617;-68
2022/08/16 04:15:07;;;;;;;10.07;6.17;;;17.10;99.90;;;;;;5041557;28;20218;-68
2022/08/16 04:17:35;;;;;;;6.63;5.90;;;16.90;99.90;;;;;;5053254;28;20206;-68
2022/08/16 04:20:07;;;;;;;7.20;5.63;;;16.70;99.90;;;;;;5053278;28;20199;-67
2022/08/16 04:22:54;;;;;;;10.67;5.33;;;16.90;99.90;;;;;;5057504;28;20203;-68
2022/08/16 04:25:21;;;;;;;6.67;5.93;;;17.00;99.90;;;;;;5053095;28;20219;-68
2022/08/16 04:27:48;;;;;;;7.53;6.07;;;17.00;99.90;;;;;;5053903;28;20698;-68
2022/08/16 04:30:21;;;;;;;8.13;5.87;;;17.00;99.90;;;;;;5037317;28;20230;-68
2022/08/16 04:33:01;;;;;;;8.77;6.07;;;17.00;99.90;;;;;;5054339;28;20249;-68
2022/08/16 04:35:30;;;;;;;7.53;6.10;;;17.00;99.90;;;;;;5053706;28;20718;-68
2022/08/16 04:38:00;;;;;;;7.00;5.80;;;17.00;99.90;;;;;;5053745;28;20199;-68
2022/08/16 04:40:47;;;;;;;8.57;5.67;;;16.90;99.90;;;;;;5053905;28;20198;-68
2022/08/16 04:43:16;;;;;;;8.17;6.40;;;16.80;99.90;;;;;;5054176;28;20202;-68
2022/08/16 04:45:44;;;;;;;8.80;6.00;;;16.80;99.90;;;;;;5035136;28;20421;-68
2022/08/16 04:48:11;;;;;;;7.87;6.10;;;16.70;99.90;;;;;;5052440;28;20215;-67
2022/08/16 04:50:48;;;;;;;7.03;5.90;;;16.80;99.90;;;;;;5052317;28;20226;-68
2022/08/16 04:53:15;;;;;;;9.03;6.00;;;17.00;99.90;;;;;;5052588;28;20199;-68
2022/08/16 04:55:44;;;;;;;7.93;6.03;;;17.10;99.90;;;;;;5052094;28;20276;-68
2022/08/16 04:58:11;;;;;;;9.57;6.03;;;17.10;99.90;;;;;;5052181;28;20717;-68
2022/08/16 05:00:58;;;;;;;8.10;6.07;;;17.20;99.90;;;;;;5037392;28;20199;-68
2022/08/16 05:03:25;;;;;;;8.80;6.17;;;17.10;99.90;;;;;;5052474;28;20203;-68
2022/08/16 05:05:52;;;;;;;8.30;5.97;;;17.10;99.90;;;;;;5038609;28;20734;-67
2022/08/16 05:08:31;;;;;;;8.07;5.90;;;17.20;99.90;;;;;;5051955;28;20230;-68
2022/08/16 05:11:01;;;;;;;9.33;6.03;;;17.40;99.90;;;;;;5034150;28;20196;-68
2022/08/16 05:13:32;;;;;;;10.07;5.70;;;17.40;99.90;;;;;;5052001;28;20198;-68
2022/08/16 05:16:11;;;;;;;6.90;5.67;;;17.30;99.90;;;;;;5042223;28;20218;-67
2022/08/16 05:18:47;;;;;;;8.07;5.53;;;17.40;99.90;;;;;;5051648;28;20199;-67
2022/08/16 05:21:13;;;;;;;8.10;5.67;;;17.60;99.90;;;;;;5034207;28;20260;-68
2022/08/16 05:23:40;;;;;;;7.07;5.43;;;17.80;99.90;;;;;;5051507;28;20725;-65
2022/08/16 05:26:18;;;;;;;7.53;5.90;;;18.00;99.90;;;;;;5051355;28;20219;-68
2022/08/16 05:28:47;;;;;;;6.80;5.70;;;18.10;99.90;;;;;;5051632;28;20218;-68
2022/08/16 05:31:22;;;;;;;7.93;5.60;;;18.10;99.90;;;;;;5051724;28;20213;-68
2022/08/16 05:33:56;;;;;;;7.93;5.87;;;18.20;99.90;;;;;;5051334;28;20667;-68
2022/08/16 05:36:23;;;;;;;9.17;6.40;;;18.30;99.90;;;;;;5051203;28;20761;-67
2022/08/16 05:39:00;;;;;;;8.50;5.80;;;18.30;99.90;;;;;;5051490;28;20277;-68
2022/08/16 05:41:28;;;;;;;8.10;6.17;;;18.30;99.90;;;;;;5051434;28;20197;-68
2022/08/16 05:43:59;;;;;;;8.73;6.13;;;18.40;99.90;;;;;;5051285;28;20272;-68
2022/08/16 05:46:31;;;;;;;8.23;6.47;;;18.40;99.90;;;;;;5050932;28;20713;-67
2022/08/16 05:48:59;;;;;;;8.50;5.83;;;18.50;99.90;;;;;;5050919;28;20694;-68
2022/08/16 05:51:35;;;;;;;6.60;5.83;;;18.50;99.90;;;;;;5051318;28;20368;-68
2022/08/16 05:54:08;;;;;;;7.60;5.90;;;18.80;99.90;;;;;;5051393;28;20195;-67
2022/08/16 05:56:38;;;;;;;8.70;6.10;;;19.00;99.90;;;;;;5050842;28;20269;-68
2022/08/16 05:59:06;;;;;;;13.03;6.30;;;19.20;99.90;;;;;;5051392;28;20203;-68
2022/08/16 06:01:33;;;;;;;7.27;5.80;;;19.40;99.90;;;;;;5050689;28;20199;-68
2022/08/16 06:04:05;;;;;;;7.83;6.07;;;19.40;99.90;;;;;;5051340;28;20392;-67
2022/08/16 06:06:51;;;;;;;7.67;6.30;;;19.40;99.90;;;;;;5050813;28;20227;-68
2022/08/16 06:09:24;;;;;;;7.00;5.87;;;19.40;99.90;;;;;;5050905;28;20222;-66
2022/08/16 06:12:14;;;;;;;8.57;7.03;;;19.50;99.90;;;;;;5055318;28;20731;-68
2022/08/16 06:14:57;;;;;;;8.23;7.03;;;19.60;99.90;;;;;;5070982;28;20662;-67
2022/08/16 06:17:24;;;;;;;9.10;7.30;;;19.60;99.90;;;;;;5070897;28;20293;-68
2022/08/16 06:20:13;;;;;;;11.53;7.80;;;19.70;99.90;;;;;;5050740;28;20630;-68
2022/08/16 06:22:39;;;;;;;8.57;6.70;;;19.60;99.90;;;;;;5050172;28;20256;-67
2022/08/16 06:25:11;;;;;;;8.57;6.93;;;19.60;99.90;;;;;;5050262;28;20698;-68
2022/08/16 06:27:41;;;;;;;8.40;7.17;;;19.70;99.90;;;;;;5050332;28;20639;-69
2022/08/16 06:30:24;;;;;;;8.47;6.90;;;19.80;99.90;;;;;;5050510;28;20290;-67
2022/08/16 06:32:55;;;;;;;11.60;7.40;;;19.80;99.90;;;;;;5050289;28;20194;-67
2022/08/16 06:35:23;;;;;;;9.30;6.90;;;19.70;99.90;;;;;;5050268;28;20452;-68
2022/08/16 06:37:49;;;;;;;10.70;6.90;;;19.80;99.90;;;;;;5050375;28;20209;-67
2022/08/16 06:40:19;;;;;;;9.70;7.43;;;19.90;99.90;;;;;;5050406;28;20209;-67
2022/08/16 06:42:46;;;;;;;9.43;7.40;;;20.00;99.90;;;;;;5050280;28;20211;-68
2022/08/16 06:45:14;;;;;;;7.97;6.87;;;20.20;99.90;;;;;;5049602;28;20219;-67
2022/08/16 06:47:41;;;;;;;10.20;7.33;;;20.20;99.90;;;;;;5050071;28;20203;-67
2022/08/16 06:50:22;;;;;;;9.87;7.90;;;20.20;99.90;;;;;;5050394;28;20220;-68
2022/08/16 06:52:56;;;;;;;9.00;6.88;;;20.30;99.90;;;;;;5049907;28;20206;-68
2022/08/16 06:55:34;;;;;;;11.90;7.77;;;20.30;99.90;;;;;;5049788;28;20253;-67
2022/08/16 06:58:04;;;;;;;11.05;7.70;;;20.50;99.90;;;;;;5050153;28;20607;-68
2022/08/16 07:00:48;;;;;;;11.00;7.40;;;20.50;99.90;;;;;;5050128;28;20199;-68
2022/08/16 07:03:14;;;;;;;11.20;7.43;;;20.40;99.90;;;;;;5050310;28;20221;-68
2022/08/16 07:05:55;;;;;;;7.68;6.53;;;20.70;99.90;;;;;;5057976;28;20288;-68
2022/08/16 07:08:24;;;;;;;7.82;7.03;;;21.00;99.90;;;;;;5049746;28;20228;-69
2022/08/16 07:10:53;;;;;;;7.75;6.35;;;21.30;99.90;;;;;;5051502;28;20222;-68
2022/08/16 07:13:20;;;;;;;8.82;6.50;;;21.50;99.90;;;;;;5055740;28;20195;-68
2022/08/16 07:16:13;;;;;;;12.55;6.07;;;21.70;99.90;;;;;;5049552;28;20288;-68
2022/08/16 07:18:42;;;;;;;12.13;6.70;;;21.80;99.90;;;;;;5049814;28;20684;-68
2022/08/16 07:21:28;;;;;;;11.18;7.35;;;22.00;99.90;;;;;;5050088;28;20297;-68
2022/08/16 07:24:12;;;;;;;8.15;6.30;;;22.30;99.90;;;;;;5050260;28;20620;-68
2022/08/16 07:26:59;;;;;;;7.63;5.88;;;22.60;99.90;;;;;;5049179;28;20257;-68
2022/08/16 07:29:28;;;;;;;8.13;6.15;;;22.80;99.90;;;;;;5049985;28;20218;-69
2022/08/16 07:31:58;;;;;;;6.85;5.43;;;23.00;99.90;;;;;;5050294;28;20195;-68
2022/08/16 07:34:27;;;;;;;9.10;5.50;;;22.90;99.90;;;;;;5053785;28;20234;-69
2022/08/16 07:37:07;;;;;;;9.32;6.32;;;23.20;99.90;;;;;;5053256;28;20680;-68
2022/08/16 07:39:36;;;;;;;7.90;5.80;;;23.20;99.90;;;;;;5060660;28;20256;-67
2022/08/16 07:42:09;;;;;;;8.55;6.07;;;23.30;99.90;;;;;;5073562;28;20666;-68
2022/08/16 07:44:51;;;;;;;9.00;6.55;;;23.60;99.90;;;;;;5070880;28;20240;-68
2022/08/16 07:47:18;;;;;;;8.38;6.30;;;23.60;99.90;;;;;;5053458;28;20697;-68
2022/08/16 07:49:50;;;;;;;7.55;6.18;;;23.70;99.90;;;;;;5054149;28;20759;-69
2022/08/16 07:52:24;;;;;;;10.63;6.78;;;23.80;99.90;;;;;;5074095;28;20607;-68
2022/08/16 07:54:56;;;;;;;8.90;6.47;;;23.90;99.90;;;;;;5053490;28;20199;-69
2022/08/16 07:57:23;;;;;;;10.13;6.10;;;24.10;99.90;;;;;;5053614;28;20194;-69
2022/08/16 07:59:50;;;;;;;7.30;6.03;;;24.20;99.90;;;;;;5053090;28;20234;-69
2022/08/16 08:02:18;;;;;;;6.70;5.75;;;24.20;99.90;;;;;;5052948;28;20891;-68
2022/08/16 08:04:47;;;;;;;6.72;5.50;;;24.20;99.90;;;;;;5053084;28;20222;-68
2022/08/16 08:07:14;;;;;;;7.28;5.30;;;24.40;99.90;;;;;;5053004;28;20437;-67
2022/08/16 08:09:42;;;;;;;8.48;5.80;;;24.50;99.90;;;;;;5052733;28;20224;-69
2022/08/16 08:12:10;;;;;;;10.23;6.65;;;24.60;99.90;;;;;;5056394;28;20248;-69
2022/08/16 08:14:57;;;;;;;8.88;6.85;;;24.70;99.90;;;;;;5072228;28;20194;-68
2022/08/16 08:17:24;;;;;;;12.85;6.13;;;24.60;99.90;;;;;;5072288;28;20581;-69
2022/08/16 08:20:12;;;;;;;11.60;6.18;;;24.70;99.90;;;;;;5058705;28;20198;-68
2022/08/16 08:22:50;;;;;;;6.63;5.22;;;24.80;99.90;;;;;;5052721;28;20201;-69
2022/08/16 08:25:17;;;;;;;9.65;6.55;;;24.70;99.90;;;;;;5052238;28;20219;-68
2022/08/16 08:27:45;;;;;;;11.23;6.53;;;24.80;99.90;;;;;;5052844;28;20327;-69
2022/08/16 08:30:13;;;;;;;6.03;5.43;;;25.00;99.90;;;;;;5052506;28;20242;-69
2022/08/16 08:33:00;;;;;;;6.93;5.43;;;25.00;99.90;;;;;;5052209;28;20191;-69
2022/08/16 08:35:28;;;;;;;7.18;5.82;;;24.90;99.90;;;;;;5052038;28;20686;-68
2022/08/16 08:37:54;;;;;;;7.47;6.13;;;25.10;99.90;;;;;;5058589;28;20198;-68
2022/08/16 08:40:23;;;;;;;10.70;6.00;;;25.10;99.90;;;;;;5052523;28;20234;-68
2022/08/16 08:42:55;;;;;;;9.80;5.40;;;25.10;99.90;;;;;;5035093;28;20199;-69
2022/08/16 08:45:27;;;;;;;8.38;6.13;;;25.20;99.90;;;;;;5051140;28;20226;-69
2022/08/16 08:48:15;;;;;;;5.70;5.10;;;25.40;99.90;;;;;;5051956;28;20195;-68
2022/08/16 08:51:05;;;;;;;5.85;4.75;;;25.40;99.90;;;;;;5052296;28;20667;-69
2022/08/16 08:53:35;;;;;;;8.20;5.88;;;25.40;99.90;;;;;;5052216;28;20218;-67
2022/08/16 08:56:05;;;;;;;6.03;5.15;;;25.50;99.90;;;;;;5051727;28;20260;-69
2022/08/16 08:58:51;;;;;;;7.43;5.78;;;25.60;99.90;;;;;;5052065;28;20199;-69
2022/08/16 09:01:29;;;;;;;7.93;5.60;;;25.80;99.90;;;;;;5053316;28;20544;-69
2022/08/16 09:04:04;;;;;;;7.45;5.53;;;26.00;99.90;;;;;;5052094;28;20203;-68
2022/08/16 09:06:31;;;;;;;7.50;5.57;;;26.30;99.90;;;;;;5051671;28;20238;-68
2022/08/16 09:08:59;;;;;;;7.47;5.57;;;26.60;99.90;;;;;;5051412;28;20229;-69
2022/08/16 09:11:26;;;;;;;8.23;5.63;;;26.70;99.90;;;;;;5051991;28;20191;-69
2022/08/16 09:14:07;;;;;;;9.60;5.55;;;26.90;99.90;;;;;;5051947;28;20285;-69
2022/08/16 09:16:50;;;;;;;8.00;5.07;;;27.10;99.90;;;;;;5035741;28;20246;-69
2022/08/16 09:19:32;;;;;;;6.00;5.03;;;27.40;99.90;;;;;;5051556;28;20195;-69
2022/08/16 09:22:00;;;;;;;7.15;5.50;;;27.60;99.90;;;;;;5051697;28;20194;-69
2022/08/16 09:24:27;;;;;;;7.28;4.82;;;27.70;99.90;;;;;;5051893;28;20233;-68
2022/08/16 09:27:13;;;;;;;5.50;5.00;;;27.90;99.90;;;;;;5052196;28;20213;-69
2022/08/16 09:29:42;;;;;;;6.35;4.43;;;28.10;99.90;;;;;;5051641;28;20221;-68
2022/08/16 09:32:11;;;;;;;6.13;5.38;;;28.20;99.90;;;;;;5051521;28;20191;-69
2022/08/16 09:34:54;;;;;;;6.40;4.70;;;28.30;99.90;;;;;;5051236;28;20199;-67
2022/08/16 09:37:24;;;;;;;5.95;4.53;;;28.20;99.90;;;;;;5034445;28;20198;-69
2022/08/16 09:39:59;;;;;;;5.97;4.70;;;28.40;99.90;;;;;;5051252;28;20268;-69
2022/08/16 09:42:27;;;;;;;8.40;4.78;;;28.40;99.90;;;;;;5051151;28;20207;-69
2022/08/16 09:44:54;;;;;;;5.93;5.25;;;28.60;99.90;;;;;;5051169;28;20324;-69
2022/08/16 09:47:42;;;;;;;5.88;4.75;;;28.30;99.90;;;;;;5038270;28;20221;-69
2022/08/16 09:50:25;;;;;;;8.60;4.28;;;28.30;99.90;;;;;;5051086;28;20215;-69
2022/08/16 09:53:04;;;;;;;5.35;4.38;;;28.30;99.90;;;;;;5051155;28;20198;-69
2022/08/16 09:55:32;;;;;;;7.25;4.85;;;28.50;99.90;;;;;;5049664;28;20814;-69
2022/08/16 09:58:10;;;;;;;4.03;3.60;;;28.60;99.90;;;;;;5051005;28;20255;-68
2022/08/16 10:00:56;;;;;;;5.80;3.90;;;28.50;99.90;;;;;;5051102;28;20195;-69
2022/08/16 10:03:26;;;;;;;4.82;4.30;;;28.10;99.90;;;;;;5050870;28;20195;-70
2022/08/16 10:05:56;;;;;;;5.90;4.30;;;28.00;99.90;;;;;;5050261;28;20218;-69
2022/08/16 10:08:22;;;;;;;6.20;3.90;;;27.90;99.90;;;;;;5032941;28;20670;-69
2022/08/16 10:13:40;;;;;;;4.78;3.72;;;28.40;99.90;;;;;;5050609;28;20207;-69
2022/08/16 10:16:07;;;;;;;4.97;3.65;;;28.70;99.90;;;;;;5050158;28;20638;-70
2022/08/16 10:18:35;;;;;;;3.88;3.47;;;28.90;99.90;;;;;;5050797;28;20195;-70
2022/08/16 10:21:23;;;;;;;4.28;3.53;;;29.10;99.90;;;;;;5050549;28;20238;-70
2022/08/16 10:23:55;;;;;;;3.40;3.10;;;29.10;99.90;;;;;;5050367;28;20590;-70
2022/08/16 10:26:27;;;;;;;3.67;3.25;;;28.80;99.90;;;;;;5050083;28;20686;-69
2022/08/16 10:29:14;;;;;;;4.25;3.33;;;28.70;99.90;;;;;;5050320;28;20206;-69
2022/08/16 10:31:46;;;;;;;4.38;3.63;;;28.50;99.90;;;;;;5050095;28;20191;-69
2022/08/16 10:34:20;;;;;;;5.10;3.60;;;28.40;99.90;;;;;;5054069;28;20430;-69
2022/08/16 10:37:00;;;;;;;6.40;3.40;;;28.30;99.90;;;;;;5052463;28;20717;-69
2022/08/16 10:39:27;;;;;;;4.25;3.42;;;28.60;99.90;;;;;;5050128;28;20559;-69
2022/08/16 10:42:07;;;;;;;4.40;3.55;;;29.00;99.90;;;;;;5050170;28;20194;-69
2022/08/16 10:44:33;;;;;;;5.05;4.00;;;29.30;99.90;;;;;;5050115;28;20195;-69
2022/08/16 10:47:00;;;;;;;4.60;3.67;;;29.60;99.90;;;;;;5049594;28;20218;-69
2022/08/16 10:49:28;;;;;;;6.47;3.60;;;30.00;99.90;;;;;;5050783;28;20246;-69
2022/08/16 10:51:55;;;;;;;9.02;3.60;;;30.20;99.90;;;;;;5066786;28;20658;-68
2022/08/16 10:54:42;;;;;;;4.18;3.33;;;30.40;99.90;;;;;;5070320;28;20198;-69
2022/08/16 10:57:26;;;;;;;4.65;3.47;;;30.50;99.90;;;;;;5036346;28;20264;-69
2022/08/16 10:59:59;;;;;;;6.88;3.67;;;30.70;99.90;;;;;;5049882;28;20645;-69
2022/08/16 11:02:27;;;;;;;5.40;3.33;;;30.70;99.90;;;;;;5050126;28;20198;-69
2022/08/16 11:05:16;;;;;;;3.80;3.40;;;30.80;99.90;;;;;;5049875;28;20230;-69
2022/08/16 11:07:47;;;;;;;4.40;3.42;;;30.80;99.90;;;;;;5049362;28;20655;-69
2022/08/16 11:10:24;;;;;;;4.57;3.95;;;30.70;99.90;;;;;;5033028;28;20658;-70
2022/08/16 11:13:16;;;;;;;4.32;3.13;;;30.60;99.90;;;;;;5049423;28;20248;-68
2022/08/16 11:16:04;;;;;;;4.32;3.78;;;30.50;99.90;;;;;;5049066;28;20210;-69
2022/08/16 11:18:51;;;;;;;4.30;3.72;;;30.20;99.90;;;;;;5049268;28;20191;-70
2022/08/16 11:21:38;;;;;;;4.35;3.85;;;30.10;99.90;;;;;;5034777;28;20210;-69
2022/08/16 11:24:27;;;;;;;5.80;3.75;;;29.70;99.90;;;;;;5049260;28;20198;-68
2022/08/16 11:27:10;;;;;;;8.88;3.92;;;29.70;99.90;;;;;;5049432;28;20629;-69
2022/08/16 11:29:52;;;;;;;6.95;3.50;;;29.70;99.90;;;;;;5049411;28;20697;-69
2022/08/16 11:32:24;;;;;;;6.70;3.63;;;29.60;99.90;;;;;;5049722;28;20713;-70
2022/08/16 11:35:00;;;;;;;6.18;3.83;;;29.70;99.90;;;;;;5049285;28;20198;-69
2022/08/16 11:37:38;;;;;;;4.72;3.55;;;29.80;99.90;;;;;;5049720;28;20603;-70
2022/08/16 11:40:27;;;;;;;3.72;3.40;;;29.70;99.90;;;;;;5049292;28;20203;-69
2022/08/16 11:43:00;;;;;;;4.47;3.38;;;30.00;99.90;;;;;;5049389;28;20203;-69
2022/08/16 11:45:29;;;;;;;6.95;3.42;;;30.20;99.90;;;;;;5048899;28;20296;-68
2022/08/16 11:48:02;;;;;;;7.03;3.80;;;30.50;99.90;;;;;;5052966;28;20195;-69
2022/08/16 11:50:32;;;;;;;3.83;3.20;;;30.80;99.90;;;;;;5058165;28;20229;-70
2022/08/16 11:53:00;;;;;;;4.38;3.65;;;30.80;99.90;;;;;;5052606;28;20191;-69
2022/08/16 11:55:29;;;;;;;3.90;3.40;;;30.60;99.90;;;;;;5051569;28;20219;-70
2022/08/16 11:57:56;;;;;;;4.03;3.63;;;30.60;99.90;;;;;;5058897;28;20210;-69
2022/08/16 12:00:23;;;;;;;10.10;3.97;;;30.70;99.90;;;;;;5049732;28;20191;-68
2022/08/16 12:03:11;;;;;;;4.63;3.60;;;30.70;99.90;;;;;;5049424;28;20207;-69
2022/08/16 12:05:40;;;;;;;5.03;3.83;;;30.80;99.90;;;;;;5048736;28;20223;-69
2022/08/16 12:08:08;;;;;;;5.05;3.53;;;31.10;99.90;;;;;;5031375;28;20622;-69
2022/08/16 12:10:37;;;;;;;5.03;3.85;;;31.30;99.90;;;;;;5049354;28;20214;-69
2022/08/16 12:13:08;;;;;;;3.90;3.60;;;31.40;99.90;;;;;;5049443;28;20202;-70
2022/08/16 12:15:36;;;;;;;3.75;3.35;;;31.50;99.90;;;;;;5049047;28;20312;-70
2022/08/16 12:18:04;;;;;;;3.97;3.45;;;31.50;99.90;;;;;;5049197;28;20199;-68
2022/08/16 12:20:35;;;;;;;5.80;3.60;;;31.70;99.90;;;;;;5052036;28;20191;-70
2022/08/16 12:23:03;;;;;;;3.70;3.20;;;31.90;99.90;;;;;;5053134;28;20203;-69
2022/08/16 12:25:32;;;;;;;3.72;3.30;;;32.00;99.90;;;;;;5052579;28;20268;-69
2022/08/16 12:28:01;;;;;;;3.50;3.13;;;32.20;99.90;;;;;;5052686;28;20198;-69
2022/08/16 12:30:31;;;;;;;3.70;3.25;;;32.20;99.90;;;;;;5052507;28;20210;-68
2022/08/16 12:33:06;;;;;;;3.85;3.50;;;32.20;99.90;;;;;;5052644;28;20212;-70
2022/08/16 12:35:36;;;;;;;3.72;3.35;;;32.30;99.90;;;;;;5052198;28;20293;-69
2022/08/16 12:38:04;;;;;;;3.95;3.15;;;32.20;99.90;;;;;;5052421;28;20613;-68
2022/08/16 12:40:51;;;;;;;3.75;3.20;;;32.30;99.90;;;;;;5052077;28;20256;-69
2022/08/16 12:43:21;;;;;;;3.85;3.47;;;32.30;99.90;;;;;;5052510;28;20612;-69
2022/08/16 12:45:52;;;;;;;4.25;3.28;;;32.20;99.90;;;;;;5051917;28;20219;-69
2022/08/16 12:51:13;;;;;;;4.22;3.75;;;32.30;99.90;;;;;;5052141;28;20589;-69
2022/08/16 12:53:52;;;;;;;4.95;3.53;;;32.40;99.90;;;;;;5052495;28;20685;-69
2022/08/16 12:56:22;;;;;;;4.63;3.33;;;32.60;99.90;;;;;;5052061;28;20218;-69
2022/08/16 12:58:51;;;;;;;3.83;3.47;;;32.40;99.90;;;;;;5052504;28;20203;-69
2022/08/16 13:01:21;;;;;;;6.15;3.53;;;32.50;99.90;;;;;;5052107;28;20199;-69
2022/08/16 13:03:49;;;;;;;5.43;3.80;;;32.40;99.90;;;;;;5052088;28;20230;-69
2022/08/16 13:06:35;;;;;;;4.32;3.60;;;32.30;99.90;;;;;;5051754;28;20222;-68
2022/08/16 13:09:18;;;;;;;5.05;3.78;;;32.00;99.90;;;;;;5052074;28;20206;-69
2022/08/16 13:12:18;;;;;;;5.72;3.83;;;31.80;99.90;;;;;;5052169;28;20195;-68
2022/08/16 13:14:47;;;;;;;3.97;3.58;;;31.90;99.90;;;;;;5051447;28;20194;-68
2022/08/16 13:17:20;;;;;;;4.82;3.42;;;31.90;99.90;;;;;;5051612;28;20203;-69
2022/08/16 13:19:49;;;;;;;5.13;4.03;;;32.00;99.90;;;;;;5051772;28;20195;-69
2022/08/16 13:22:40;;;;;;;4.13;3.35;;;32.10;99.90;;;;;;5051330;28;20249;-67
2022/08/16 13:25:15;;;;;;;4.82;3.72;;;32.30;99.90;;;;;;5069037;28;20218;-69